sensor_id;sensor_type;location;lat;lon;timestamp;temperature;humidity
23122;DHT22;11730;51.248;22.534;2023-04-15T00:01:00;9.60;99.90
23122;DHT22;11730;51.248;22.534;2023-04-15T00:03:28;9.50;99.90
23122;DHT22;11730;51.248;22.534;2023-04-15T00:05:57;9.50;99.90
23122;DHT22;11730;51.248;22.534;2023-04-15T00:08:24;9.40;99.90
23122;DHT22;11730;51.248;22.534;2023-04-15T00:13:18;9.50;99.90
23122;DHT22;11730;51.248;22.534;2023-04-15T00:15:45;9.30;99.90
23122;DHT22;11730;51.248;22.534;2023-04-15T00:18:13;9.40;99.90
23122;DHT22;11730;51.248;22.534;2023-04-15T00:20:40;9.30;99.90
23122;DHT22;11730;51.248;22.534;2023-04-15T00:23:07;9.20;99.90
23122;DHT22;11730;51.248;22.534;2023-04-15T00:25:34;9.20;99.90
23122;DHT22;11730;51.248;22.534;2023-04-15T00:30:28;9.20;99.90
23122;DHT22;11730;51.248;22.534;2023-04-15T00:32:55;9.30;99.90
23122;DHT22;11730;51.248;22.534;2023-04-15T00:40:18;9.30;99.90
23122;DHT22;11730;51.248;22.534;2023-04-15T00:42:47;9.30;99.90
23122;DHT22;11730;51.248;22.534;2023-04-15T00:45:14;9.30;99.90
23122;DHT22;11730;51.248;22.534;2023-04-15T00:47:42;9.20;99.90
23122;DHT22;11730;51.248;22.534;2023-04-15T00:50:10;9.20;99.90
23122;DHT22;11730;51.248;22.534;2023-04-15T00:52:39;9.20;99.90
23122;DHT22;11730;51.248;22.534;2023-04-15T00:55:07;9.20;99.90
23122;DHT22;11730;51.248;22.534;2023-04-15T00:57:34;9.20;99.90
23122;DHT22;11730;51.248;22.534;2023-04-15T01:00:02;9.20;99.90
23122;DHT22;11730;51.248;22.534;2023-04-15T01:02:31;9.20;99.90
23122;DHT22;11730;51.248;22.534;2023-04-15T01:07:26;9.20;99.90
23122;DHT22;11730;51.248;22.534;2023-04-15T01:09:53;9.20;99.90
23122;DHT22;11730;51.248;22.534;2023-04-15T01:14:48;9.20;99.90
23122;DHT22;11730;51.248;22.534;2023-04-15T01:17:16;9.20;99.90
23122;DHT22;11730;51.248;22.534;2023-04-15T01:22:10;9.10;99.90
23122;DHT22;11730;51.248;22.534;2023-04-15T01:27:05;9.00;99.90
23122;DHT22;11730;51.248;22.534;2023-04-15T01:29:34;9.00;99.90
23122;DHT22;11730;51.248;22.534;2023-04-15T01:32:01;9.00;99.90
23122;DHT22;11730;51.248;22.534;2023-04-15T01:34:27;9.00;99.90
23122;DHT22;11730;51.248;22.534;2023-04-15T01:36:55;9.10;99.90
23122;DHT22;11730;51.248;22.534;2023-04-15T01:39:21;9.10;99.90
23122;DHT22;11730;51.248;22.534;2023-04-15T01:44:16;9.10;99.90
23122;DHT22;11730;51.248;22.534;2023-04-15T01:46:43;9.10;99.90
23122;DHT22;11730;51.248;22.534;2023-04-15T01:54:04;9.10;99.90
23122;DHT22;11730;51.248;22.534;2023-04-15T01:56:31;9.10;99.90
23122;DHT22;11730;51.248;22.534;2023-04-15T01:58:59;9.10;99.90
23122;DHT22;11730;51.248;22.534;2023-04-15T02:03:53;9.10;99.90
23122;DHT22;11730;51.248;22.534;2023-04-15T02:11:15;8.90;99.90
23122;DHT22;11730;51.248;22.534;2023-04-15T02:13:42;9.00;99.90
23122;DHT22;11730;51.248;22.534;2023-04-15T02:16:16;9.00;99.90
23122;DHT22;11730;51.248;22.534;2023-04-15T02:18:45;9.00;99.90
23122;DHT22;11730;51.248;22.534;2023-04-15T02:21:13;8.90;99.90
23122;DHT22;11730;51.248;22.534;2023-04-15T02:23:40;8.90;99.90
23122;DHT22;11730;51.248;22.534;2023-04-15T02:26:07;9.00;99.90
23122;DHT22;11730;51.248;22.534;2023-04-15T02:31:05;9.00;99.90
23122;DHT22;11730;51.248;22.534;2023-04-15T02:33:32;9.00;99.90
23122;DHT22;11730;51.248;22.534;2023-04-15T02:35:59;9.00;99.90
23122;DHT22;11730;51.248;22.534;2023-04-15T02:40:53;9.00;99.90
23122;DHT22;11730;51.248;22.534;2023-04-15T02:45:48;9.10;99.90
23122;DHT22;11730;51.248;22.534;2023-04-15T02:48:15;9.10;99.90
23122;DHT22;11730;51.248;22.534;2023-04-15T02:50:45;9.00;99.90
23122;DHT22;11730;51.248;22.534;2023-04-15T02:58:08;9.00;99.90
23122;DHT22;11730;51.248;22.534;2023-04-15T03:03:04;9.00;99.90
23122;DHT22;11730;51.248;22.534;2023-04-15T03:07:59;9.00;99.90
23122;DHT22;11730;51.248;22.534;2023-04-15T03:10:27;9.00;99.90
23122;DHT22;11730;51.248;22.534;2023-04-15T03:17:48;9.10;99.90
23122;DHT22;11730;51.248;22.534;2023-04-15T03:20:15;9.10;99.90
23122;DHT22;11730;51.248;22.534;2023-04-15T03:22:42;9.10;99.90
23122;DHT22;11730;51.248;22.534;2023-04-15T03:27:37;9.20;99.90
23122;DHT22;11730;51.248;22.534;2023-04-15T03:30:05;9.10;99.90
23122;DHT22;11730;51.248;22.534;2023-04-15T03:32:32;9.10;99.90
23122;DHT22;11730;51.248;22.534;2023-04-15T03:34:59;9.00;99.90
23122;DHT22;11730;51.248;22.534;2023-04-15T03:37:26;9.00;99.90
23122;DHT22;11730;51.248;22.534;2023-04-15T03:44:48;9.10;99.90
23122;DHT22;11730;51.248;22.534;2023-04-15T03:54:37;9.10;99.90
23122;DHT22;11730;51.248;22.534;2023-04-15T03:57:04;9.10;99.90
23122;DHT22;11730;51.248;22.534;2023-04-15T03:59:31;9.10;99.90
23122;DHT22;11730;51.248;22.534;2023-04-15T04:04:25;9.10;99.90
23122;DHT22;11730;51.248;22.534;2023-04-15T04:06:52;9.10;99.90
23122;DHT22;11730;51.248;22.534;2023-04-15T04:09:19;9.10;99.90
23122;DHT22;11730;51.248;22.534;2023-04-15T04:11:46;9.10;99.90
23122;DHT22;11730;51.248;22.534;2023-04-15T04:14:13;9.10;99.90
23122;DHT22;11730;51.248;22.534;2023-04-15T04:19:07;9.10;99.90
23122;DHT22;11730;51.248;22.534;2023-04-15T04:24:02;9.20;99.90
23122;DHT22;11730;51.248;22.534;2023-04-15T04:26:29;9.10;99.90
23122;DHT22;11730;51.248;22.534;2023-04-15T04:43:39;9.20;99.90
23122;DHT22;11730;51.248;22.534;2023-04-15T04:46:06;9.20;99.90
23122;DHT22;11730;51.248;22.534;2023-04-15T04:48:33;9.20;99.90
23122;DHT22;11730;51.248;22.534;2023-04-15T05:00:50;9.20;99.90
23122;DHT22;11730;51.248;22.534;2023-04-15T05:03:17;9.20;99.90
23122;DHT22;11730;51.248;22.534;2023-04-15T05:05:45;9.30;99.90
23122;DHT22;11730;51.248;22.534;2023-04-15T05:10:39;9.20;99.90
23122;DHT22;11730;51.248;22.534;2023-04-15T05:15:33;9.20;99.90
23122;DHT22;11730;51.248;22.534;2023-04-15T05:18:02;9.10;99.90
23122;DHT22;11730;51.248;22.534;2023-04-15T05:20:29;9.20;99.90
23122;DHT22;11730;51.248;22.534;2023-04-15T05:22:56;9.20;99.90
23122;DHT22;11730;51.248;22.534;2023-04-15T05:27:50;9.10;99.90
23122;DHT22;11730;51.248;22.534;2023-04-15T05:30:17;9.10;99.90
23122;DHT22;11730;51.248;22.534;2023-04-15T05:35:11;9.10;99.90
23122;DHT22;11730;51.248;22.534;2023-04-15T05:37:38;9.20;99.90
23122;DHT22;11730;51.248;22.534;2023-04-15T05:40:05;9.10;99.90
23122;DHT22;11730;51.248;22.534;2023-04-15T05:42:33;9.10;99.90
23122;DHT22;11730;51.248;22.534;2023-04-15T05:45:00;9.10;99.90
23122;DHT22;11730;51.248;22.534;2023-04-15T05:49:54;9.00;99.90
23122;DHT22;11730;51.248;22.534;2023-04-15T05:52:21;8.90;99.90
23122;DHT22;11730;51.248;22.534;2023-04-15T05:54:48;9.00;99.90
23122;DHT22;11730;51.248;22.534;2023-04-15T05:57:15;9.00;99.90
23122;DHT22;11730;51.248;22.534;2023-04-15T05:59:42;9.10;99.90
23122;DHT22;11730;51.248;22.534;2023-04-15T06:02:10;9.10;99.90
23122;DHT22;11730;51.248;22.534;2023-04-15T06:04:37;9.00;99.90
23122;DHT22;11730;51.248;22.534;2023-04-15T06:09:35;9.10;99.90
23122;DHT22;11730;51.248;22.534;2023-04-15T06:12:02;9.10;99.90
23122;DHT22;11730;51.248;22.534;2023-04-15T06:14:29;9.10;99.90
23122;DHT22;11730;51.248;22.534;2023-04-15T06:16:56;9.00;99.90
23122;DHT22;11730;51.248;22.534;2023-04-15T06:19:23;9.00;99.90
23122;DHT22;11730;51.248;22.534;2023-04-15T06:21:50;9.10;99.90
23122;DHT22;11730;51.248;22.534;2023-04-15T06:26:44;9.00;99.90
23122;DHT22;11730;51.248;22.534;2023-04-15T06:31:39;9.10;99.90
23122;DHT22;11730;51.248;22.534;2023-04-15T06:34:06;9.20;99.90
23122;DHT22;11730;51.248;22.534;2023-04-15T06:36:33;9.20;99.90
23122;DHT22;11730;51.248;22.534;2023-04-15T06:39:00;9.20;99.90
23122;DHT22;11730;51.248;22.534;2023-04-15T06:41:28;9.10;99.90
23122;DHT22;11730;51.248;22.534;2023-04-15T06:43:55;9.10;99.90
23122;DHT22;11730;51.248;22.534;2023-04-15T06:48:49;9.30;99.90
23122;DHT22;11730;51.248;22.534;2023-04-15T06:51:16;9.30;99.90
23122;DHT22;11730;51.248;22.534;2023-04-15T06:56:10;9.30;99.90
23122;DHT22;11730;51.248;22.534;2023-04-15T06:58:37;9.30;99.90
23122;DHT22;11730;51.248;22.534;2023-04-15T07:01:04;9.30;99.90
23122;DHT22;11730;51.248;22.534;2023-04-15T07:08:27;9.30;99.90
23122;DHT22;11730;51.248;22.534;2023-04-15T07:15:48;9.40;99.90
23122;DHT22;11730;51.248;22.534;2023-04-15T07:18:16;9.40;99.90
23122;DHT22;11730;51.248;22.534;2023-04-15T07:20:42;9.50;99.90
23122;DHT22;11730;51.248;22.534;2023-04-15T07:25:37;9.60;99.90
23122;DHT22;11730;51.248;22.534;2023-04-15T07:28:04;9.60;99.90
23122;DHT22;11730;51.248;22.534;2023-04-15T07:32:58;9.60;99.90
23122;DHT22;11730;51.248;22.534;2023-04-15T07:35:25;9.70;99.90
23122;DHT22;11730;51.248;22.534;2023-04-15T07:37:53;9.80;99.90
23122;DHT22;11730;51.248;22.534;2023-04-15T07:42:48;10.00;99.90
23122;DHT22;11730;51.248;22.534;2023-04-15T07:47:42;9.90;99.90
23122;DHT22;11730;51.248;22.534;2023-04-15T07:50:09;10.00;99.90
23122;DHT22;11730;51.248;22.534;2023-04-15T07:52:40;10.00;99.90
23122;DHT22;11730;51.248;22.534;2023-04-15T07:57:36;10.00;99.90
23122;DHT22;11730;51.248;22.534;2023-04-15T08:00:04;10.00;99.90
23122;DHT22;11730;51.248;22.534;2023-04-15T08:02:31;10.00;99.90
23122;DHT22;11730;51.248;22.534;2023-04-15T08:07:28;9.80;99.90
23122;DHT22;11730;51.248;22.534;2023-04-15T08:12:23;9.90;99.90
23122;DHT22;11730;51.248;22.534;2023-04-15T08:27:11;9.80;99.90
23122;DHT22;11730;51.248;22.534;2023-04-15T08:29:39;9.80;99.90
23122;DHT22;11730;51.248;22.534;2023-04-15T08:32:06;9.80;99.90
23122;DHT22;11730;51.248;22.534;2023-04-15T08:34:33;9.80;99.90
23122;DHT22;11730;51.248;22.534;2023-04-15T08:37:00;9.90;99.90
23122;DHT22;11730;51.248;22.534;2023-04-15T08:42:02;9.90;99.90
23122;DHT22;11730;51.248;22.534;2023-04-15T08:44:32;9.80;99.90
23122;DHT22;11730;51.248;22.534;2023-04-15T08:47:00;9.90;99.90
23122;DHT22;11730;51.248;22.534;2023-04-15T08:49:29;9.90;99.90
23122;DHT22;11730;51.248;22.534;2023-04-15T08:51:58;10.00;99.90
23122;DHT22;11730;51.248;22.534;2023-04-15T08:54:26;9.90;99.90
23122;DHT22;11730;51.248;22.534;2023-04-15T08:56:53;9.90;99.90
23122;DHT22;11730;51.248;22.534;2023-04-15T08:59:20;9.90;99.90
23122;DHT22;11730;51.248;22.534;2023-04-15T09:01:49;10.00;99.90
23122;DHT22;11730;51.248;22.534;2023-04-15T09:04:19;10.00;99.90
23122;DHT22;11730;51.248;22.534;2023-04-15T09:06:46;9.90;99.90
23122;DHT22;11730;51.248;22.534;2023-04-15T09:09:13;10.00;99.90
23122;DHT22;11730;51.248;22.534;2023-04-15T09:11:40;10.10;99.90
23122;DHT22;11730;51.248;22.534;2023-04-15T09:14:08;10.00;99.90
23122;DHT22;11730;51.248;22.534;2023-04-15T09:16:55;10.00;99.90
23122;DHT22;11730;51.248;22.534;2023-04-15T09:19:23;10.00;99.90
23122;DHT22;11730;51.248;22.534;2023-04-15T09:21:53;10.10;99.90
23122;DHT22;11730;51.248;22.534;2023-04-15T09:24:24;10.10;99.90
23122;DHT22;11730;51.248;22.534;2023-04-15T09:26:53;10.00;99.90
23122;DHT22;11730;51.248;22.534;2023-04-15T09:29:24;10.10;99.90
23122;DHT22;11730;51.248;22.534;2023-04-15T09:34:19;10.30;99.90
23122;DHT22;11730;51.248;22.534;2023-04-15T09:41:44;10.50;99.90
23122;DHT22;11730;51.248;22.534;2023-04-15T09:44:25;10.50;99.90
23122;DHT22;11730;51.248;22.534;2023-04-15T09:49:19;10.50;99.90
23122;DHT22;11730;51.248;22.534;2023-04-15T09:51:46;10.50;99.90
23122;DHT22;11730;51.248;22.534;2023-04-15T09:54:35;10.50;99.90
23122;DHT22;11730;51.248;22.534;2023-04-15T09:57:09;10.60;99.90
23122;DHT22;11730;51.248;22.534;2023-04-15T09:59:36;10.80;99.90
23122;DHT22;11730;51.248;22.534;2023-04-15T10:02:04;11.00;99.90
23122;DHT22;11730;51.248;22.534;2023-04-15T10:04:35;11.10;99.90
23122;DHT22;11730;51.248;22.534;2023-04-15T10:07:05;11.40;99.90
23122;DHT22;11730;51.248;22.534;2023-04-15T10:09:34;11.60;99.90
23122;DHT22;11730;51.248;22.534;2023-04-15T10:12:03;11.70;99.90
23122;DHT22;11730;51.248;22.534;2023-04-15T10:14:33;11.90;99.90
23122;DHT22;11730;51.248;22.534;2023-04-15T10:17:01;11.90;99.90
23122;DHT22;11730;51.248;22.534;2023-04-15T10:19:32;12.20;99.90
23122;DHT22;11730;51.248;22.534;2023-04-15T10:21:59;12.70;99.90
23122;DHT22;11730;51.248;22.534;2023-04-15T10:24:26;13.40;99.90
23122;DHT22;11730;51.248;22.534;2023-04-15T10:26:54;14.10;99.90
23122;DHT22;11730;51.248;22.534;2023-04-15T10:29:22;14.60;99.90
23122;DHT22;11730;51.248;22.534;2023-04-15T10:31:52;14.80;96.20
23122;DHT22;11730;51.248;22.534;2023-04-15T10:34:21;15.00;97.80
23122;DHT22;11730;51.248;22.534;2023-04-15T10:36:49;14.70;97.20
23122;DHT22;11730;51.248;22.534;2023-04-15T10:42:10;15.00;96.40
23122;DHT22;11730;51.248;22.534;2023-04-15T10:44:40;15.20;96.00
23122;DHT22;11730;51.248;22.534;2023-04-15T10:47:15;15.60;94.50
23122;DHT22;11730;51.248;22.534;2023-04-15T10:49:56;15.90;92.80
23122;DHT22;11730;51.248;22.534;2023-04-15T10:52:26;16.10;91.10
23122;DHT22;11730;51.248;22.534;2023-04-15T10:55:15;16.30;91.00
23122;DHT22;11730;51.248;22.534;2023-04-15T10:57:44;15.90;87.70
23122;DHT22;11730;51.248;22.534;2023-04-15T11:00:16;15.20;91.00
23122;DHT22;11730;51.248;22.534;2023-04-15T11:02:54;15.10;91.60
23122;DHT22;11730;51.248;22.534;2023-04-15T11:05:48;14.90;91.30
23122;DHT22;11730;51.248;22.534;2023-04-15T11:08:15;14.80;91.60
23122;DHT22;11730;51.248;22.534;2023-04-15T11:15:38;14.60;92.10
23122;DHT22;11730;51.248;22.534;2023-04-15T11:20:40;15.60;88.30
23122;DHT22;11730;51.248;22.534;2023-04-15T11:23:08;15.80;87.60
23122;DHT22;11730;51.248;22.534;2023-04-15T11:25:41;15.80;86.50
23122;DHT22;11730;51.248;22.534;2023-04-15T11:28:10;16.00;84.60
23122;DHT22;11730;51.248;22.534;2023-04-15T11:30:39;16.20;85.70
23122;DHT22;11730;51.248;22.534;2023-04-15T11:33:07;16.20;83.60
23122;DHT22;11730;51.248;22.534;2023-04-15T11:35:35;15.90;82.30
23122;DHT22;11730;51.248;22.534;2023-04-15T11:38:11;15.70;83.20
23122;DHT22;11730;51.248;22.534;2023-04-15T11:45:52;14.40;87.50
23122;DHT22;11730;51.248;22.534;2023-04-15T11:48:22;14.50;88.70
23122;DHT22;11730;51.248;22.534;2023-04-15T11:50:57;14.40;88.20
23122;DHT22;11730;51.248;22.534;2023-04-15T11:53:36;14.50;88.70
23122;DHT22;11730;51.248;22.534;2023-04-15T11:56:03;14.30;86.90
23122;DHT22;11730;51.248;22.534;2023-04-15T11:58:30;14.40;86.50
23122;DHT22;11730;51.248;22.534;2023-04-15T12:00:58;14.30;87.40
23122;DHT22;11730;51.248;22.534;2023-04-15T12:06:07;14.80;87.50
23122;DHT22;11730;51.248;22.534;2023-04-15T12:09:00;14.60;88.10
23122;DHT22;11730;51.248;22.534;2023-04-15T12:16:36;14.40;87.80
23122;DHT22;11730;51.248;22.534;2023-04-15T12:19:18;14.60;87.60
23122;DHT22;11730;51.248;22.534;2023-04-15T12:21:48;14.80;85.10
23122;DHT22;11730;51.248;22.534;2023-04-15T12:24:20;15.00;84.90
23122;DHT22;11730;51.248;22.534;2023-04-15T12:26:50;15.20;85.80
23122;DHT22;11730;51.248;22.534;2023-04-15T12:29:19;15.10;87.80
23122;DHT22;11730;51.248;22.534;2023-04-15T12:31:53;15.10;88.60
23122;DHT22;11730;51.248;22.534;2023-04-15T12:34:49;15.10;90.40
23122;DHT22;11730;51.248;22.534;2023-04-15T12:37:17;15.20;89.50
23122;DHT22;11730;51.248;22.534;2023-04-15T12:39:46;15.20;90.10
23122;DHT22;11730;51.248;22.534;2023-04-15T12:42:15;15.10;90.30
23122;DHT22;11730;51.248;22.534;2023-04-15T12:44:43;15.80;90.80
23122;DHT22;11730;51.248;22.534;2023-04-15T12:47:10;16.20;88.20
23122;DHT22;11730;51.248;22.534;2023-04-15T12:49:38;16.20;86.90
23122;DHT22;11730;51.248;22.534;2023-04-15T12:52:05;16.20;87.90
23122;DHT22;11730;51.248;22.534;2023-04-15T12:54:32;16.50;84.30
23122;DHT22;11730;51.248;22.534;2023-04-15T12:57:00;16.40;81.80
23122;DHT22;11730;51.248;22.534;2023-04-15T12:59:29;16.30;82.00
23122;DHT22;11730;51.248;22.534;2023-04-15T13:01:56;16.10;81.80
23122;DHT22;11730;51.248;22.534;2023-04-15T13:04:24;15.70;82.20
23122;DHT22;11730;51.248;22.534;2023-04-15T13:06:51;15.50;81.70
23122;DHT22;11730;51.248;22.534;2023-04-15T13:09:18;15.30;79.70
23122;DHT22;11730;51.248;22.534;2023-04-15T13:14:12;15.50;83.00
23122;DHT22;11730;51.248;22.534;2023-04-15T13:16:39;15.50;82.40
23122;DHT22;11730;51.248;22.534;2023-04-15T13:19:06;15.40;81.60
23122;DHT22;11730;51.248;22.534;2023-04-15T13:21:33;15.30;81.20
23122;DHT22;11730;51.248;22.534;2023-04-15T13:24:02;15.20;82.90
23122;DHT22;11730;51.248;22.534;2023-04-15T13:26:30;14.90;83.60
23122;DHT22;11730;51.248;22.534;2023-04-15T13:28:58;14.90;84.00
23122;DHT22;11730;51.248;22.534;2023-04-15T13:31:25;14.50;87.00
23122;DHT22;11730;51.248;22.534;2023-04-15T13:33:52;14.60;83.50
23122;DHT22;11730;51.248;22.534;2023-04-15T13:38:47;14.50;83.40
23122;DHT22;11730;51.248;22.534;2023-04-15T13:41:17;14.40;83.00
23122;DHT22;11730;51.248;22.534;2023-04-15T13:46:11;14.60;83.70
23122;DHT22;11730;51.248;22.534;2023-04-15T13:48:38;14.50;83.70
23122;DHT22;11730;51.248;22.534;2023-04-15T13:51:05;14.30;84.90
23122;DHT22;11730;51.248;22.534;2023-04-15T13:53:32;14.20;85.00
23122;DHT22;11730;51.248;22.534;2023-04-15T13:56:07;14.10;86.90
23122;DHT22;11730;51.248;22.534;2023-04-15T13:58:35;14.00;88.30
23122;DHT22;11730;51.248;22.534;2023-04-15T14:01:02;14.60;88.10
23122;DHT22;11730;51.248;22.534;2023-04-15T14:05:59;14.70;87.20
23122;DHT22;11730;51.248;22.534;2023-04-15T14:08:26;15.00;86.90
23122;DHT22;11730;51.248;22.534;2023-04-15T14:13:21;14.80;86.80
23122;DHT22;11730;51.248;22.534;2023-04-15T14:15:48;14.60;85.10
23122;DHT22;11730;51.248;22.534;2023-04-15T14:18:15;14.40;86.00
23122;DHT22;11730;51.248;22.534;2023-04-15T14:20:41;13.90;89.30
23122;DHT22;11730;51.248;22.534;2023-04-15T14:25:35;13.90;90.10
23122;DHT22;11730;51.248;22.534;2023-04-15T14:28:05;14.10;89.00
23122;DHT22;11730;51.248;22.534;2023-04-15T14:32:59;14.60;85.90
23122;DHT22;11730;51.248;22.534;2023-04-15T14:35:26;14.60;86.40
23122;DHT22;11730;51.248;22.534;2023-04-15T14:37:53;14.80;86.30
23122;DHT22;11730;51.248;22.534;2023-04-15T14:40:21;14.60;88.10
23122;DHT22;11730;51.248;22.534;2023-04-15T14:42:48;14.80;86.80
23122;DHT22;11730;51.248;22.534;2023-04-15T14:45:15;14.70;87.50
23122;DHT22;11730;51.248;22.534;2023-04-15T14:47:43;14.50;88.50
23122;DHT22;11730;51.248;22.534;2023-04-15T14:50:10;14.50;88.70
23122;DHT22;11730;51.248;22.534;2023-04-15T14:52:37;14.30;88.90
23122;DHT22;11730;51.248;22.534;2023-04-15T14:55:06;14.10;90.30
23122;DHT22;11730;51.248;22.534;2023-04-15T15:00:02;14.10;90.70
23122;DHT22;11730;51.248;22.534;2023-04-15T15:05:06;13.80;91.70
23122;DHT22;11730;51.248;22.534;2023-04-15T15:07:33;13.70;92.30
23122;DHT22;11730;51.248;22.534;2023-04-15T15:10:01;13.60;92.50
23122;DHT22;11730;51.248;22.534;2023-04-15T15:12:28;13.30;92.50
23122;DHT22;11730;51.248;22.534;2023-04-15T15:19:50;12.60;93.90
23122;DHT22;11730;51.248;22.534;2023-04-15T15:24:47;12.70;94.90
23122;DHT22;11730;51.248;22.534;2023-04-15T15:27:14;12.50;95.00
23122;DHT22;11730;51.248;22.534;2023-04-15T15:32:08;12.30;96.00
23122;DHT22;11730;51.248;22.534;2023-04-15T15:34:35;12.20;96.20
23122;DHT22;11730;51.248;22.534;2023-04-15T15:37:01;12.20;96.90
23122;DHT22;11730;51.248;22.534;2023-04-15T15:44:23;11.90;97.90
23122;DHT22;11730;51.248;22.534;2023-04-15T15:46:50;11.80;98.50
23122;DHT22;11730;51.248;22.534;2023-04-15T15:49:17;11.80;99.20
23122;DHT22;11730;51.248;22.534;2023-04-15T15:56:39;11.70;99.50
23122;DHT22;11730;51.248;22.534;2023-04-15T15:59:07;11.70;99.40
23122;DHT22;11730;51.248;22.534;2023-04-15T16:04:01;11.60;99.90
23122;DHT22;11730;51.248;22.534;2023-04-15T16:06:29;11.50;99.90
23122;DHT22;11730;51.248;22.534;2023-04-15T16:09:00;11.30;99.90
23122;DHT22;11730;51.248;22.534;2023-04-15T16:11:28;11.20;99.90
23122;DHT22;11730;51.248;22.534;2023-04-15T16:18:50;10.90;99.90
23122;DHT22;11730;51.248;22.534;2023-04-15T16:21:17;11.00;99.90
23122;DHT22;11730;51.248;22.534;2023-04-15T16:23:46;11.00;99.90
23122;DHT22;11730;51.248;22.534;2023-04-15T16:26:13;10.90;99.90
23122;DHT22;11730;51.248;22.534;2023-04-15T16:31:10;10.90;99.90
23122;DHT22;11730;51.248;22.534;2023-04-15T16:33:37;10.80;99.90
23122;DHT22;11730;51.248;22.534;2023-04-15T16:41:00;10.70;99.90
23122;DHT22;11730;51.248;22.534;2023-04-15T16:43:27;10.60;99.90
23122;DHT22;11730;51.248;22.534;2023-04-15T16:45:54;10.60;99.90
23122;DHT22;11730;51.248;22.534;2023-04-15T16:48:22;10.60;99.90
23122;DHT22;11730;51.248;22.534;2023-04-15T16:53:16;10.50;99.90
23122;DHT22;11730;51.248;22.534;2023-04-15T16:55:43;10.50;99.90
23122;DHT22;11730;51.248;22.534;2023-04-15T16:58:10;10.40;99.90
23122;DHT22;11730;51.248;22.534;2023-04-15T17:05:32;10.40;99.90
23122;DHT22;11730;51.248;22.534;2023-04-15T17:12:55;10.40;99.90
23122;DHT22;11730;51.248;22.534;2023-04-15T17:17:50;10.30;99.90
23122;DHT22;11730;51.248;22.534;2023-04-15T17:22:45;10.20;99.90
23122;DHT22;11730;51.248;22.534;2023-04-15T17:25:12;10.20;99.90
23122;DHT22;11730;51.248;22.534;2023-04-15T17:27:40;10.40;99.90
23122;DHT22;11730;51.248;22.534;2023-04-15T17:30:08;10.20;99.90
23122;DHT22;11730;51.248;22.534;2023-04-15T17:32:35;10.20;99.90
23122;DHT22;11730;51.248;22.534;2023-04-15T17:40:00;10.20;99.90
23122;DHT22;11730;51.248;22.534;2023-04-15T17:42:27;10.20;99.90
23122;DHT22;11730;51.248;22.534;2023-04-15T17:47:21;10.20;99.90
23122;DHT22;11730;51.248;22.534;2023-04-15T17:52:16;10.10;99.90
23122;DHT22;11730;51.248;22.534;2023-04-15T17:54:44;10.10;99.90
23122;DHT22;11730;51.248;22.534;2023-04-15T17:57:11;10.00;99.90
23122;DHT22;11730;51.248;22.534;2023-04-15T17:59:38;9.90;99.90
23122;DHT22;11730;51.248;22.534;2023-04-15T18:04:38;10.00;99.90
23122;DHT22;11730;51.248;22.534;2023-04-15T18:07:05;9.90;99.90
23122;DHT22;11730;51.248;22.534;2023-04-15T18:09:32;9.90;99.90
23122;DHT22;11730;51.248;22.534;2023-04-15T18:14:27;9.90;99.90
23122;DHT22;11730;51.248;22.534;2023-04-15T18:17:04;9.80;99.90
23122;DHT22;11730;51.248;22.534;2023-04-15T18:19:30;9.80;99.90
23122;DHT22;11730;51.248;22.534;2023-04-15T18:21:58;9.70;99.90
23122;DHT22;11730;51.248;22.534;2023-04-15T18:24:27;9.80;99.90
23122;DHT22;11730;51.248;22.534;2023-04-15T18:31:50;9.80;99.90
23122;DHT22;11730;51.248;22.534;2023-04-15T18:34:17;9.70;99.90
23122;DHT22;11730;51.248;22.534;2023-04-15T18:36:44;9.80;99.90
23122;DHT22;11730;51.248;22.534;2023-04-15T18:39:11;9.80;99.90
23122;DHT22;11730;51.248;22.534;2023-04-15T18:41:38;9.80;99.90
23122;DHT22;11730;51.248;22.534;2023-04-15T18:44:05;9.70;99.90
23122;DHT22;11730;51.248;22.534;2023-04-15T18:46:32;9.80;99.90
23122;DHT22;11730;51.248;22.534;2023-04-15T18:49:00;9.80;99.90
23122;DHT22;11730;51.248;22.534;2023-04-15T18:51:27;9.70;99.90
23122;DHT22;11730;51.248;22.534;2023-04-15T18:53:53;9.80;99.90
23122;DHT22;11730;51.248;22.534;2023-04-15T18:58:48;9.80;99.90
23122;DHT22;11730;51.248;22.534;2023-04-15T19:01:34;9.80;99.90
23122;DHT22;11730;51.248;22.534;2023-04-15T19:08:57;9.80;99.90
23122;DHT22;11730;51.248;22.534;2023-04-15T19:11:25;9.80;99.90
23122;DHT22;11730;51.248;22.534;2023-04-15T19:13:52;9.70;99.90
23122;DHT22;11730;51.248;22.534;2023-04-15T19:18:46;9.70;99.90
23122;DHT22;11730;51.248;22.534;2023-04-15T19:21:14;9.70;99.90
23122;DHT22;11730;51.248;22.534;2023-04-15T19:23:41;9.60;99.90
23122;DHT22;11730;51.248;22.534;2023-04-15T19:26:11;9.60;99.90
23122;DHT22;11730;51.248;22.534;2023-04-15T19:28:38;9.60;99.90
23122;DHT22;11730;51.248;22.534;2023-04-15T19:33:33;9.70;99.90
23122;DHT22;11730;51.248;22.534;2023-04-15T19:36:01;9.70;99.90
23122;DHT22;11730;51.248;22.534;2023-04-15T19:38:30;9.70;99.90
23122;DHT22;11730;51.248;22.534;2023-04-15T19:40:58;9.70;99.90
23122;DHT22;11730;51.248;22.534;2023-04-15T19:43:24;9.60;99.90
23122;DHT22;11730;51.248;22.534;2023-04-15T19:48:21;9.80;99.90
23122;DHT22;11730;51.248;22.534;2023-04-15T19:50:48;9.70;99.90
23122;DHT22;11730;51.248;22.534;2023-04-15T19:55:44;9.80;99.90
23122;DHT22;11730;51.248;22.534;2023-04-15T20:00:38;9.80;99.90
23122;DHT22;11730;51.248;22.534;2023-04-15T20:03:05;9.80;99.90
23122;DHT22;11730;51.248;22.534;2023-04-15T20:08:01;9.70;99.90
23122;DHT22;11730;51.248;22.534;2023-04-15T20:10:29;9.70;99.90
23122;DHT22;11730;51.248;22.534;2023-04-15T20:17:52;9.60;99.90
23122;DHT22;11730;51.248;22.534;2023-04-15T20:20:19;9.60;99.90
23122;DHT22;11730;51.248;22.534;2023-04-15T20:22:46;9.60;99.90
23122;DHT22;11730;51.248;22.534;2023-04-15T20:25:13;9.60;99.90
23122;DHT22;11730;51.248;22.534;2023-04-15T20:27:40;9.60;99.90
23122;DHT22;11730;51.248;22.534;2023-04-15T20:32:35;9.60;99.90
23122;DHT22;11730;51.248;22.534;2023-04-15T20:35:05;9.70;99.90
23122;DHT22;11730;51.248;22.534;2023-04-15T20:40:00;9.70;99.90
23122;DHT22;11730;51.248;22.534;2023-04-15T20:42:32;9.70;99.90
23122;DHT22;11730;51.248;22.534;2023-04-15T20:45:00;9.60;99.90
23122;DHT22;11730;51.248;22.534;2023-04-15T20:47:28;9.50;99.90
23122;DHT22;11730;51.248;22.534;2023-04-15T20:49:55;9.50;99.90
23122;DHT22;11730;51.248;22.534;2023-04-15T20:52:22;9.70;99.90
23122;DHT22;11730;51.248;22.534;2023-04-15T20:54:49;9.50;99.90
23122;DHT22;11730;51.248;22.534;2023-04-15T20:57:17;9.50;99.90
23122;DHT22;11730;51.248;22.534;2023-04-15T20:59:45;9.70;99.90